PAEN/ENA METAR and TAF weather

Enter ICAO airport designator
Station Type Date Time Source
PAEN METAR 2021/07/29 01:53 UTC NOAA

PAEN 290153Z 22020G29KT 10SM CLR 13/09 A3018 RMK AO2 PK WND 22029/0148 SLP219 T01330094


Station Type Date Time Source
PAEN Decoded METAR 2021/07/29 01:53 UTC NOAA

KENAI MUNICIPAL AIRPORT, AK, United States (PAEN) 60-35N 151-14W 25M
Jul 28, 2021 - 09:53 PM EDT / 2021.07.29 0153 UTC
Wind: from the SW (220 degrees) at 23 MPH (20 KT) gusting to 33 MPH (29 KT):0
Visibility: 10 mile(s):0
Sky conditions: clear
Temperature: 55.9 F (13.3 C)
Dew Point: 48.9 F (9.4 C)
Relative Humidity: 77%
Pressure (altimeter): 30.18 in. Hg (1022 hPa)
ob: PAEN 290153Z 22020G29KT 10SM CLR 13/09 A3018 RMK AO2 PK WND 22029/0148 SLP219 T01330094
cycle: 2

Station Type Date Time Source
PAEN TAF 2021/07/28 18:24 UTC NOAA

TAF PAEN 281722Z 2818/2918 20006KT P6SM SCT050 OVC100
FM282200 21010G18KT P6SM OVC100
FM290600 20009KT P6SM OVC050

Example: see airport list